createdAt,value
2022-08-05T00:04:29.991Z,5.82
2022-08-05T00:09:34.692Z,6.97
2022-08-05T00:14:37.300Z,7.03
2022-08-05T00:19:45.604Z,6.20
2022-08-05T00:24:59.427Z,5.25
2022-08-05T00:30:04.562Z,5.40
2022-08-05T00:35:08.436Z,5.88
2022-08-05T00:40:13.747Z,6.35
2022-08-05T00:45:28.413Z,6.78
2022-08-05T00:50:44.264Z,6.05
2022-08-05T00:55:50.697Z,6.75
2022-08-05T01:00:53.267Z,7.20
2022-08-05T01:05:56.594Z,7.15
2022-08-05T01:11:03.745Z,6.72
2022-08-05T01:16:11.293Z,6.95
2022-08-05T01:21:25.575Z,7.35
2022-08-05T01:26:55.427Z,7.55
2022-08-05T01:32:03.202Z,7.72
2022-08-05T01:37:10.604Z,8.02
2022-08-05T01:42:28.771Z,8.68
2022-08-05T01:47:38.994Z,8.32
2022-08-05T01:52:44.946Z,7.65
2022-08-05T01:58:10.298Z,8.98
2022-08-05T02:03:31.389Z,8.40
2022-08-05T02:08:40.879Z,8.63
2022-08-05T02:14:12.664Z,9.10
2022-08-05T02:19:25.588Z,9.27
2022-08-05T02:24:41.079Z,9.40
2022-08-05T02:29:58.477Z,9.40
2022-08-05T02:35:13.333Z,9.73
2022-08-05T02:40:18.097Z,10.07
2022-08-05T02:45:23.810Z,10.98
2022-08-05T02:50:30.218Z,9.27
2022-08-05T02:55:54.399Z,9.27
2022-08-05T03:00:57.508Z,9.90
2022-08-05T03:06:55.389Z,9.73
2022-08-05T03:11:57.543Z,9.60
2022-08-05T03:21:55.714Z,10.68
2022-08-05T03:26:58.880Z,10.02
2022-08-05T03:32:01.767Z,11.20
2022-08-05T03:37:07.352Z,11.82
2022-08-05T03:42:12.862Z,11.15
2022-08-05T03:47:15.493Z,11.25
2022-08-05T03:52:38.457Z,12.50
2022-08-05T03:57:49.666Z,12.93
2022-08-05T04:02:59.016Z,11.50
2022-08-05T04:08:05.541Z,11.45
2022-08-05T04:13:08.709Z,12.27
2022-08-05T04:18:20.549Z,11.82
2022-08-05T04:23:57.272Z,12.88
2022-08-05T04:28:52.235Z,11.98
2022-08-05T04:34:31.401Z,12.63
2022-08-05T04:39:18.857Z,13.20
2022-08-05T04:44:30.006Z,12.98
2022-08-05T04:49:38.427Z,13.25
2022-08-05T04:54:57.939Z,11.82
2022-08-05T05:00:01.484Z,12.00
2022-08-05T05:05:04.183Z,12.13
2022-08-05T05:10:29.641Z,11.48
2022-08-05T05:15:57.320Z,11.10
2022-08-05T05:20:56.113Z,10.25
2022-08-05T05:26:02.512Z,11.38
2022-08-05T05:31:05.626Z,11.60
2022-08-05T05:36:11.444Z,10.77
2022-08-05T05:41:18.597Z,10.40
2022-08-05T05:46:21.883Z,9.38
2022-08-05T05:51:49.870Z,10.05
2022-08-05T05:56:54.723Z,10.02
2022-08-05T06:01:58.191Z,10.00
2022-08-05T06:07:01.689Z,9.57
2022-08-05T06:12:06.395Z,9.23
2022-08-05T06:17:22.513Z,8.93
2022-08-05T06:22:28.594Z,9.68
2022-08-05T06:28:11.728Z,8.90
2022-08-05T06:32:55.604Z,9.18
2022-08-05T06:38:00.958Z,8.63
2022-08-05T06:43:58.092Z,8.73
2022-08-05T06:53:53.798Z,8.13
2022-08-05T06:58:57.791Z,7.53
2022-08-05T07:04:01.275Z,8.48
2022-08-05T07:09:04.654Z,7.35
2022-08-05T07:14:29.312Z,7.13
2022-08-05T07:24:55.871Z,6.90
2022-08-05T07:30:24.441Z,6.40
2022-08-05T07:36:01.813Z,6.70
2022-08-05T07:40:45.474Z,6.63
2022-08-05T07:45:59.444Z,6.80
2022-08-05T07:51:04.411Z,6.18
2022-08-05T07:57:00.063Z,5.55
2022-08-05T08:01:52.495Z,5.63
2022-08-05T08:07:00.910Z,4.97
2022-08-05T08:12:19.980Z,5.05
2022-08-05T08:17:32.508Z,4.18
2022-08-05T08:22:35.232Z,3.50
2022-08-05T08:32:51.210Z,3.40
2022-08-05T08:37:56.316Z,3.00
2022-08-05T08:44:57.883Z,3.08
2022-08-05T08:49:02.987Z,2.67
2022-08-05T08:53:49.838Z,2.20
2022-08-05T08:58:52.552Z,1.83
2022-08-05T09:03:57.547Z,1.88
2022-08-05T09:09:02.790Z,1.80
2022-08-05T09:14:54.042Z,1.92
2022-08-05T09:19:36.761Z,2.13
2022-08-05T09:24:59.297Z,1.85
2022-08-05T09:30:06.434Z,1.80
2022-08-05T09:35:26.465Z,1.30
2022-08-05T09:40:32.346Z,1.65
2022-08-05T09:46:07.570Z,1.50
2022-08-05T09:51:02.971Z,1.70
2022-08-05T09:56:13.046Z,1.70
2022-08-05T10:01:31.990Z,1.88
2022-08-05T10:06:36.601Z,1.45
2022-08-05T10:11:39.267Z,1.42
2022-08-05T10:16:53.089Z,1.00
2022-08-05T10:21:57.322Z,0.90
2022-08-05T10:27:01.431Z,1.08
2022-08-05T10:32:51.521Z,0.75
2022-08-05T10:37:41.313Z,0.90
2022-08-05T10:42:51.685Z,1.23
2022-08-05T10:48:29.232Z,0.98
2022-08-05T10:53:38.255Z,0.68
2022-08-05T10:59:03.951Z,0.65
2022-08-05T11:04:17.325Z,0.80
2022-08-05T11:09:39.066Z,0.75
2022-08-05T11:15:01.506Z,0.70
2022-08-05T11:20:34.206Z,0.70
2022-08-05T11:26:04.343Z,0.55
2022-08-05T11:31:57.148Z,0.70
2022-08-05T11:36:52.589Z,0.75
2022-08-05T11:42:02.260Z,0.70
2022-08-05T11:47:10.908Z,0.57
2022-08-05T11:52:24.484Z,0.60
2022-08-05T11:58:08.002Z,0.40
2022-08-05T12:02:56.586Z,0.50
2022-08-05T12:08:07.901Z,0.70
2022-08-05T12:13:27.636Z,0.60
2022-08-05T12:18:39.722Z,0.50
2022-08-05T12:24:00.096Z,0.40
2022-08-05T12:29:14.408Z,0.47
2022-08-05T12:34:23.477Z,0.40
2022-08-05T12:39:37.610Z,0.50
2022-08-05T12:44:44.337Z,0.70
2022-08-05T12:50:04.098Z,0.63
2022-08-05T12:55:22.602Z,0.43
2022-08-05T13:02:03.859Z,0.82
2022-08-05T13:05:52.574Z,0.63
2022-08-05T13:11:00.713Z,0.50
2022-08-05T13:16:12.378Z,0.50
2022-08-05T13:21:19.383Z,0.45
2022-08-05T13:26:27.214Z,0.60
2022-08-05T13:32:04.966Z,0.90
2022-08-05T13:36:56.836Z,0.50
2022-08-05T13:41:59.700Z,0.50
2022-08-05T13:47:08.838Z,0.52
2022-08-05T13:52:13.218Z,0.45
2022-08-05T13:57:16.340Z,0.70
2022-08-05T14:02:20.665Z,0.60
2022-08-05T14:08:00.611Z,0.70
2022-08-05T14:12:54.496Z,0.52
2022-08-05T14:17:59.840Z,0.40
2022-08-05T14:23:03.530Z,0.55
2022-08-05T14:28:06.095Z,0.50
2022-08-05T14:33:10.524Z,0.65
2022-08-05T14:38:32.242Z,0.60
2022-08-05T14:43:51.818Z,0.50
2022-08-05T14:49:07.400Z,0.38
2022-08-05T14:54:28.753Z,0.50
2022-08-05T15:04:39.764Z,0.47
2022-08-05T15:09:52.749Z,0.40
2022-08-05T15:14:57.881Z,0.40
2022-08-05T15:20:01.815Z,0.50
2022-08-05T15:25:13.748Z,0.43
2022-08-05T15:30:17.318Z,0.55
2022-08-05T15:35:21.806Z,0.73
2022-08-05T15:41:00.836Z,0.60
2022-08-05T15:45:47.440Z,0.43
2022-08-05T15:50:51.443Z,0.70
2022-08-05T15:56:02.743Z,0.40
2022-08-05T16:01:17.079Z,0.60
2022-08-05T16:06:23.121Z,0.63
2022-08-05T16:11:42.884Z,0.60
2022-08-05T16:16:47.231Z,0.60
2022-08-05T16:22:01.133Z,0.80
2022-08-05T16:27:07.412Z,0.80
2022-08-05T16:32:10.314Z,0.70
2022-08-05T16:38:02.422Z,0.60
2022-08-05T16:42:37.309Z,0.52
2022-08-05T16:47:53.553Z,0.80
2022-08-05T16:53:01.637Z,0.80
2022-08-05T16:58:15.571Z,1.02
2022-08-05T17:03:22.722Z,1.02
2022-08-05T17:08:33.597Z,0.63
2022-08-05T17:13:46.215Z,0.50
2022-08-05T17:18:48.816Z,0.80
2022-08-05T17:29:15.447Z,0.70
2022-08-05T17:34:18.223Z,1.00
2022-08-05T17:39:23.755Z,0.98
2022-08-05T17:44:32.720Z,0.63
2022-08-05T17:49:59.715Z,0.70
2022-08-05T17:54:59.728Z,0.82
2022-08-05T18:00:05.345Z,0.90
2022-08-05T18:05:09.668Z,0.70
2022-08-05T18:10:21.411Z,0.60
2022-08-05T18:15:27.047Z,0.90
2022-08-05T18:20:31.960Z,0.77
2022-08-05T18:25:36.441Z,1.00
2022-08-05T18:30:41.794Z,0.73
2022-08-05T18:36:00.095Z,0.90
2022-08-05T18:41:56.161Z,1.00
2022-08-05T18:52:05.715Z,0.85
2022-08-05T18:57:15.537Z,1.00
2022-08-05T19:02:36.488Z,1.02
2022-08-05T19:07:42.342Z,1.15
2022-08-05T19:12:49.698Z,1.10
2022-08-05T19:18:08.532Z,0.80
2022-08-05T19:24:04.397Z,1.40
2022-08-05T19:28:36.554Z,1.10
2022-08-05T19:33:40.607Z,1.48
2022-08-05T19:38:51.290Z,1.10
2022-08-05T19:44:06.630Z,1.37
2022-08-05T19:49:16.798Z,1.10
2022-08-05T19:54:26.799Z,1.27
2022-08-05T20:04:58.747Z,1.15
2022-08-05T20:10:02.396Z,1.33
2022-08-05T20:15:23.012Z,1.08
2022-08-05T20:20:38.996Z,1.05
2022-08-05T20:25:42.008Z,1.48
2022-08-05T20:30:45.866Z,1.65
2022-08-05T20:35:50.483Z,1.40
2022-08-05T20:40:52.976Z,2.00
2022-08-05T20:46:00.381Z,1.35
2022-08-05T20:51:08.351Z,1.70
2022-08-05T20:56:11.000Z,1.52
2022-08-05T21:01:14.872Z,2.00
2022-08-05T21:06:28.591Z,1.67
2022-08-05T21:12:09.066Z,1.75
2022-08-05T21:16:56.982Z,1.70
2022-08-05T21:21:59.527Z,1.83
2022-08-05T21:27:02.167Z,1.93
2022-08-05T21:32:07.080Z,1.60
2022-08-05T21:37:09.682Z,1.70
2022-08-05T21:42:30.788Z,2.00
2022-08-05T21:47:56.100Z,2.00
2022-08-05T21:53:04.546Z,1.80
2022-08-05T21:58:11.658Z,2.20
2022-08-05T22:03:15.703Z,2.40
2022-08-05T22:08:24.158Z,3.15
2022-08-05T22:14:31.256Z,2.40
2022-08-05T22:18:52.798Z,3.15
2022-08-05T22:24:40.301Z,3.13
2022-08-05T22:29:35.763Z,3.17
2022-08-05T22:34:39.631Z,2.77
2022-08-05T22:39:43.227Z,2.65
2022-08-05T22:44:48.580Z,2.78
2022-08-05T22:50:20.443Z,3.00
2022-08-05T22:55:24.789Z,2.70
2022-08-05T23:00:29.222Z,2.75
2022-08-05T23:05:36.157Z,3.00
2022-08-05T23:10:38.817Z,2.88
2022-08-05T23:15:41.522Z,3.30
2022-08-05T23:20:46.866Z,3.63
2022-08-05T23:25:55.450Z,3.15
2022-08-05T23:31:07.042Z,3.35
2022-08-05T23:36:28.233Z,3.50
2022-08-05T23:41:34.287Z,3.22
2022-08-05T23:46:40.298Z,3.28
2022-08-05T23:52:03.375Z,3.00
2022-08-05T23:57:08.963Z,3.72
